Time;durP1;ratioP1;P1;durP2;ratioP2;P2;SDS_P1;SDS_P2;PMS_P1;PMS_P2;Temp;Humidity;BMP_temperature;BMP_pressure;BME280_temperature;BME280_humidity;BME280_pressure;Samples;Min_cycle;Max_cycle;Signal;HPM_P1;HPM_P2
2024/01/12 00:01:47;;;;;;;108.97;102.83;;;2.30;99.90;;;;;;5084358;28;20036;-75
2024/01/12 00:04:15;;;;;;;92.10;86.00;;;2.20;99.90;;;;;;5081871;28;20044;-75
2024/01/12 00:06:41;;;;;;;94.10;88.15;;;2.20;99.90;;;;;;5076826;28;20048;-75
2024/01/12 00:09:06;;;;;;;90.63;85.03;;;2.20;99.90;;;;;;5064484;28;20154;-75
2024/01/12 00:11:32;;;;;;;94.50;88.87;;;2.20;99.90;;;;;;5074625;28;20059;-75
2024/01/12 00:13:58;;;;;;;88.27;83.03;;;2.20;99.90;;;;;;5079640;28;20039;-75
2024/01/12 00:16:23;;;;;;;86.17;80.57;;;2.20;99.90;;;;;;5068022;28;20490;-75
2024/01/12 00:18:49;;;;;;;91.20;85.70;;;2.10;99.90;;;;;;5088117;28;20131;-75
2024/01/12 00:21:15;;;;;;;88.73;83.03;;;2.10;99.90;;;;;;5073557;28;20047;-75
2024/01/12 00:23:41;;;;;;;110.17;103.80;;;2.10;99.90;;;;;;5060175;28;20375;-75
2024/01/12 00:26:06;;;;;;;84.57;79.27;;;2.10;99.90;;;;;;5075503;28;20318;-75
2024/01/12 00:28:32;;;;;;;87.97;82.13;;;2.10;99.90;;;;;;5058305;28;20032;-75
2024/01/12 00:30:58;;;;;;;80.33;75.27;;;2.00;99.90;;;;;;5080583;28;20055;-75
2024/01/12 00:33:23;;;;;;;77.83;73.33;;;2.00;99.90;;;;;;5085110;28;20410;-75
2024/01/12 00:35:49;;;;;;;92.40;86.67;;;2.00;99.90;;;;;;5079658;28;20115;-75
2024/01/12 00:38:15;;;;;;;85.27;79.97;;;2.00;99.90;;;;;;5067812;28;20040;-75
2024/01/12 00:40:41;;;;;;;81.93;76.97;;;2.00;99.90;;;;;;5079749;28;20075;-75
2024/01/12 00:43:07;;;;;;;85.53;80.27;;;1.90;99.90;;;;;;5058014;28;20648;-75
2024/01/12 00:45:33;;;;;;;79.47;74.57;;;1.90;99.90;;;;;;5079993;28;20040;-75
2024/01/12 00:47:59;;;;;;;86.88;81.63;;;1.90;99.90;;;;;;5063415;28;20401;-74
2024/01/12 00:50:25;;;;;;;77.40;72.70;;;1.90;99.90;;;;;;5083291;28;20044;-75
2024/01/12 00:52:50;;;;;;;87.43;81.97;;;1.90;99.90;;;;;;5080195;28;20045;-75
2024/01/12 00:55:17;;;;;;;82.53;77.07;;;1.80;99.90;;;;;;5063234;28;20047;-75
2024/01/12 00:57:43;;;;;;;69.85;65.50;;;1.90;99.90;;;;;;5084301;28;20135;-74
2024/01/12 01:00:09;;;;;;;76.13;71.77;;;1.80;99.90;;;;;;5061539;28;20521;-75
2024/01/12 01:02:35;;;;;;;78.18;73.20;;;1.80;99.90;;;;;;5077282;28;20506;-75
2024/01/12 01:05:01;;;;;;;72.53;67.90;;;1.80;99.90;;;;;;5076637;28;20121;-75
2024/01/12 01:07:28;;;;;;;82.40;77.55;;;1.80;99.90;;;;;;5081148;28;20139;-75
2024/01/12 01:09:54;;;;;;;75.85;71.07;;;1.70;99.90;;;;;;5078106;28;20046;-75
2024/01/12 01:12:20;;;;;;;70.45;65.88;;;1.70;99.90;;;;;;5082131;28;20113;-75
2024/01/12 01:14:46;;;;;;;151.37;142.03;;;1.70;99.90;;;;;;5079265;28;20039;-74
2024/01/12 01:17:12;;;;;;;98.32;92.25;;;1.70;99.90;;;;;;5062701;28;20042;-75
2024/01/12 01:19:38;;;;;;;81.90;76.90;;;1.80;99.90;;;;;;5069388;28;20040;-75
2024/01/12 01:22:04;;;;;;;77.70;72.23;;;1.90;99.90;;;;;;5059657;28;20035;-75
2024/01/12 01:24:30;;;;;;;82.13;76.68;;;1.90;99.90;;;;;;5072849;28;20044;-75
2024/01/12 01:26:56;;;;;;;83.10;78.30;;;1.90;99.90;;;;;;5074151;28;20047;-75
2024/01/12 01:29:22;;;;;;;74.53;70.10;;;1.90;99.90;;;;;;5090555;28;20692;-75
2024/01/12 01:31:48;;;;;;;71.07;66.77;;;1.90;99.90;;;;;;5081886;28;20047;-75
2024/01/12 01:34:14;;;;;;;74.03;69.47;;;1.90;99.90;;;;;;5080275;28;20462;-75
2024/01/12 01:36:40;;;;;;;87.97;82.50;;;1.90;99.90;;;;;;5063494;28;20123;-75
2024/01/12 01:39:06;;;;;;;81.95;76.78;;;1.90;99.90;;;;;;5081109;28;20120;-75
2024/01/12 01:41:33;;;;;;;60.53;56.57;;;1.90;99.90;;;;;;5078992;28;20032;-75
2024/01/12 01:43:59;;;;;;;79.15;74.32;;;1.90;99.90;;;;;;5085488;28;20101;-74
2024/01/12 01:46:26;;;;;;;81.70;76.70;;;1.90;99.90;;;;;;5061100;28;20483;-75
2024/01/12 01:48:52;;;;;;;81.57;76.75;;;1.90;99.90;;;;;;5076258;28;20040;-75
2024/01/12 01:51:18;;;;;;;87.35;82.30;;;1.80;99.90;;;;;;5063079;28;20404;-75
2024/01/12 01:53:44;;;;;;;90.53;85.00;;;1.80;99.90;;;;;;5060837;28;20116;-75
2024/01/12 01:56:11;;;;;;;79.60;74.83;;;1.80;99.90;;;;;;5071029;28;20119;-75
2024/01/12 01:58:37;;;;;;;104.05;97.70;;;1.80;99.90;;;;;;5075748;28;20037;-75
2024/01/12 02:01:12;;;;;;;92.13;86.43;;;1.80;99.90;;;;;;5073805;28;20036;-75
2024/01/12 02:03:39;;;;;;;85.47;79.65;;;1.80;99.90;;;;;;5081538;28;20155;-74
2024/01/12 02:06:05;;;;;;;81.05;76.05;;;1.80;99.90;;;;;;5061694;28;20040;-75
2024/01/12 02:08:31;;;;;;;89.45;84.32;;;1.80;99.90;;;;;;5072882;28;20097;-75
2024/01/12 02:10:57;;;;;;;83.10;78.43;;;1.80;99.90;;;;;;5073988;28;20036;-75
2024/01/12 02:13:22;;;;;;;94.80;89.00;;;1.80;99.90;;;;;;5055289;28;20060;-75
2024/01/12 02:15:49;;;;;;;88.83;83.60;;;1.80;99.90;;;;;;5080310;28;20036;-75
2024/01/12 02:18:15;;;;;;;89.75;84.70;;;1.80;99.90;;;;;;5060348;28;20481;-75
2024/01/12 02:20:41;;;;;;;78.20;73.20;;;1.80;99.90;;;;;;5079529;28;20072;-75
2024/01/12 02:23:07;;;;;;;92.05;86.53;;;1.80;99.90;;;;;;5063093;28;20168;-75
2024/01/12 02:25:33;;;;;;;95.43;89.90;;;1.80;99.90;;;;;;5077711;28;20562;-75
2024/01/12 02:27:59;;;;;;;86.27;80.40;;;1.80;99.90;;;;;;5056552;28;20036;-75
2024/01/12 02:30:25;;;;;;;96.07;90.40;;;1.80;99.90;;;;;;5082615;28;20048;-75
2024/01/12 02:32:50;;;;;;;82.87;77.73;;;1.80;99.90;;;;;;5060305;28;20483;-75
2024/01/12 02:35:16;;;;;;;88.03;82.90;;;1.90;99.90;;;;;;5083178;28;20070;-75
2024/01/12 02:37:42;;;;;;;85.73;80.20;;;1.90;99.90;;;;;;5076149;28;20036;-75
2024/01/12 02:40:07;;;;;;;82.67;77.83;;;1.90;99.90;;;;;;5085304;28;20036;-75
2024/01/12 02:42:33;;;;;;;81.17;75.83;;;1.90;99.90;;;;;;5086790;28;20040;-75
2024/01/12 02:44:59;;;;;;;86.83;81.73;;;1.90;99.90;;;;;;5081828;28;20108;-75
2024/01/12 02:47:24;;;;;;;82.23;76.90;;;1.90;99.90;;;;;;5084838;28;20051;-74
2024/01/12 02:49:50;;;;;;;74.37;70.13;;;1.90;99.90;;;;;;5086045;28;20093;-75
2024/01/12 02:52:16;;;;;;;103.30;97.30;;;1.90;99.90;;;;;;5064905;28;20048;-75
2024/01/12 02:54:42;;;;;;;89.13;83.70;;;1.90;99.90;;;;;;5086610;28;20123;-75
2024/01/12 02:57:07;;;;;;;85.13;80.07;;;1.90;99.90;;;;;;5082215;28;20043;-75
2024/01/12 02:59:33;;;;;;;92.97;87.77;;;1.80;99.90;;;;;;5080177;28;20040;-75
2024/01/12 03:01:59;;;;;;;91.03;85.53;;;1.80;99.90;;;;;;5070672;28;20037;-75
2024/01/12 03:04:24;;;;;;;104.70;98.60;;;1.80;99.90;;;;;;5061736;28;20477;-75
2024/01/12 03:06:50;;;;;;;100.93;95.27;;;1.80;99.90;;;;;;5078832;28;20040;-75
2024/01/12 03:09:16;;;;;;;102.57;95.77;;;1.90;99.90;;;;;;5084896;28;20127;-75
2024/01/12 03:11:41;;;;;;;96.47;90.63;;;1.90;99.90;;;;;;5060637;28;20052;-75
2024/01/12 03:14:08;;;;;;;92.47;86.80;;;1.90;99.90;;;;;;5058646;28;20068;-75
2024/01/12 03:16:34;;;;;;;164.23;154.52;;;2.00;99.90;;;;;;5057328;28;20040;-75
2024/01/12 03:18:59;;;;;;;112.00;105.40;;;2.10;99.90;;;;;;5059509;28;20449;-75
2024/01/12 03:21:25;;;;;;;128.87;121.07;;;2.10;99.90;;;;;;5066604;28;20168;-75
2024/01/12 03:23:51;;;;;;;111.57;104.73;;;2.20;99.90;;;;;;5087392;28;20036;-75
2024/01/12 03:26:16;;;;;;;102.43;96.37;;;2.20;99.90;;;;;;5081326;28;20047;-75
2024/01/12 03:28:42;;;;;;;107.70;100.40;;;2.20;99.90;;;;;;5058713;28;20040;-74
2024/01/12 03:31:08;;;;;;;122.83;115.27;;;2.20;99.90;;;;;;5076576;28;20032;-75
2024/01/12 03:33:33;;;;;;;100.10;94.53;;;2.20;99.90;;;;;;5078743;28;20040;-75
2024/01/12 03:36:00;;;;;;;90.57;84.80;;;2.20;99.90;;;;;;5071882;28;20029;-75
2024/01/12 03:38:25;;;;;;;99.72;93.93;;;2.20;99.90;;;;;;5076684;28;20036;-75
2024/01/12 03:40:51;;;;;;;98.47;92.23;;;2.10;99.90;;;;;;5060321;28;20032;-75
2024/01/12 03:43:17;;;;;;;85.30;80.10;;;2.10;99.90;;;;;;5076639;28;20036;-75
2024/01/12 03:45:43;;;;;;;83.27;78.20;;;2.10;99.90;;;;;;5083158;28;20093;-75
2024/01/12 03:48:08;;;;;;;99.17;92.93;;;2.00;99.90;;;;;;5055753;28;20047;-75
2024/01/12 03:50:34;;;;;;;94.03;88.60;;;2.00;99.90;;;;;;5064412;28;20109;-75
2024/01/12 03:53:00;;;;;;;80.40;75.20;;;1.90;99.90;;;;;;5082022;28;20040;-75
2024/01/12 03:55:25;;;;;;;76.70;72.40;;;1.90;99.90;;;;;;5061661;28;20093;-75
2024/01/12 03:57:51;;;;;;;92.00;86.53;;;1.90;99.90;;;;;;5076654;28;20044;-74
2024/01/12 04:00:17;;;;;;;79.70;74.63;;;1.80;99.90;;;;;;5077563;28;20533;-75
2024/01/12 04:02:43;;;;;;;81.03;75.97;;;1.80;99.90;;;;;;5070359;28;20054;-75
2024/01/12 04:05:09;;;;;;;69.33;65.00;;;1.80;99.90;;;;;;5082976;28;20079;-75
2024/01/12 04:07:35;;;;;;;82.32;77.15;;;1.70;99.90;;;;;;5085862;28;20406;-75
2024/01/12 04:10:00;;;;;;;69.90;65.43;;;1.70;99.90;;;;;;5061595;28;20041;-75
2024/01/12 04:12:26;;;;;;;78.43;73.40;;;1.70;99.90;;;;;;5081316;28;20426;-75
2024/01/12 04:14:52;;;;;;;80.93;75.87;;;1.70;99.90;;;;;;5067382;28;20051;-75
2024/01/12 04:17:18;;;;;;;75.83;71.27;;;1.70;99.90;;;;;;5072645;28;20048;-75
2024/01/12 04:19:43;;;;;;;86.33;81.23;;;1.60;99.90;;;;;;5081777;28;20032;-75
2024/01/12 04:22:09;;;;;;;88.30;82.60;;;1.60;99.90;;;;;;5082809;28;20482;-75
2024/01/12 04:24:35;;;;;;;107.90;102.10;;;1.70;99.90;;;;;;5060533;28;20079;-75
2024/01/12 04:27:00;;;;;;;90.67;85.20;;;1.60;99.90;;;;;;5078649;28;20044;-75
2024/01/12 04:29:26;;;;;;;76.37;71.80;;;1.60;99.90;;;;;;5086444;28;20486;-75
2024/01/12 04:31:52;;;;;;;93.57;87.73;;;1.60;99.90;;;;;;5086390;28;20051;-75
2024/01/12 04:34:17;;;;;;;82.63;77.77;;;1.60;99.90;;;;;;5082762;28;20131;-75
2024/01/12 04:36:43;;;;;;;82.80;77.83;;;1.60;99.90;;;;;;5061426;28;20044;-75
2024/01/12 04:39:08;;;;;;;76.27;71.87;;;1.60;99.90;;;;;;5081820;28;20122;-75
2024/01/12 04:41:34;;;;;;;78.80;74.00;;;1.60;99.90;;;;;;5078230;28;20031;-75
2024/01/12 04:44:00;;;;;;;85.80;80.80;;;1.60;99.90;;;;;;5089188;28;20547;-75
2024/01/12 04:46:26;;;;;;;163.93;154.00;;;1.60;99.90;;;;;;5086113;28;20048;-75
2024/01/12 04:48:52;;;;;;;141.18;133.18;;;1.60;99.90;;;;;;5082514;28;20113;-75
2024/01/12 04:51:18;;;;;;;108.67;102.03;;;1.60;99.90;;;;;;5081538;28;20463;-75
2024/01/12 04:53:44;;;;;;;141.27;132.82;;;1.70;99.90;;;;;;5084942;28;20115;-75
2024/01/12 04:56:09;;;;;;;103.77;97.50;;;1.70;99.90;;;;;;5080091;28;20470;-74
2024/01/12 04:58:35;;;;;;;116.30;108.70;;;1.70;99.90;;;;;;5086474;28;20094;-75
2024/01/12 05:01:01;;;;;;;114.20;106.80;;;1.70;99.90;;;;;;5065539;28;20072;-75
2024/01/12 05:03:26;;;;;;;117.83;109.83;;;1.70;99.90;;;;;;5064308;28;20119;-75
2024/01/12 05:05:52;;;;;;;167.60;157.47;;;1.70;99.90;;;;;;5061597;28;20486;-75
2024/01/12 05:08:18;;;;;;;88.83;83.77;;;1.80;99.90;;;;;;5062090;28;20052;-74
2024/01/12 05:10:43;;;;;;;88.10;82.73;;;1.80;99.90;;;;;;5057464;28;20127;-75
2024/01/12 05:13:09;;;;;;;95.10;89.43;;;1.80;99.90;;;;;;5077335;28;20510;-75
2024/01/12 05:15:35;;;;;;;99.33;93.13;;;1.80;99.90;;;;;;5082421;28;20075;-75
2024/01/12 05:18:00;;;;;;;100.87;94.20;;;1.80;99.90;;;;;;5086913;28;20040;-74
2024/01/12 05:20:27;;;;;;;102.93;96.60;;;1.70;99.90;;;;;;5068729;28;20516;-75
2024/01/12 05:22:52;;;;;;;90.85;84.88;;;1.70;99.90;;;;;;5082033;28;20242;-75
2024/01/12 05:25:18;;;;;;;85.93;79.93;;;1.70;99.90;;;;;;5083185;28;20040;-75
2024/01/12 05:27:44;;;;;;;87.73;82.30;;;1.70;99.90;;;;;;5060086;28;20226;-75
2024/01/12 05:30:10;;;;;;;89.43;83.23;;;1.70;99.90;;;;;;5065593;28;20081;-75
2024/01/12 05:32:36;;;;;;;84.20;79.28;;;1.70;99.90;;;;;;5072608;28;20044;-75
2024/01/12 05:35:02;;;;;;;88.95;83.90;;;1.70;99.90;;;;;;5055913;28;20092;-75
2024/01/12 05:37:28;;;;;;;82.60;76.97;;;1.70;99.90;;;;;;5078321;28;20032;-75
2024/01/12 05:39:54;;;;;;;113.70;106.63;;;1.70;99.90;;;;;;5062560;28;20137;-75
2024/01/12 05:42:20;;;;;;;110.05;102.47;;;1.70;99.90;;;;;;5074396;28;20040;-75
2024/01/12 05:44:46;;;;;;;112.80;105.50;;;1.70;99.90;;;;;;5082962;28;20401;-74
2024/01/12 05:47:12;;;;;;;117.68;110.32;;;1.70;99.90;;;;;;5061165;28;20097;-75
2024/01/12 05:49:38;;;;;;;143.73;134.47;;;1.70;99.90;;;;;;5079718;28;20390;-75
2024/01/12 05:52:04;;;;;;;106.67;100.00;;;1.70;99.90;;;;;;5077959;28;20640;-74
2024/01/12 05:54:29;;;;;;;86.65;81.32;;;1.70;99.90;;;;;;5080329;28;20336;-75
2024/01/12 05:56:55;;;;;;;98.97;92.83;;;1.70;99.90;;;;;;5081677;28;20083;-75
2024/01/12 05:59:21;;;;;;;118.53;110.43;;;1.70;99.90;;;;;;5076143;28;20562;-75
2024/01/12 06:01:47;;;;;;;109.53;102.47;;;1.80;99.90;;;;;;5057579;28;21149;-75
2024/01/12 06:04:13;;;;;;;122.75;114.68;;;1.80;99.90;;;;;;5062474;28;20132;-75
2024/01/12 06:06:41;;;;;;;133.10;124.17;;;1.90;99.90;;;;;;5078161;28;20040;-75
2024/01/12 06:09:08;;;;;;;193.35;181.07;;;1.90;99.90;;;;;;5056983;28;20136;-75
2024/01/12 06:11:34;;;;;;;103.30;96.70;;;1.90;99.90;;;;;;5077631;28;20096;-75
2024/01/12 06:14:00;;;;;;;146.48;137.23;;;2.00;99.90;;;;;;5088034;28;20431;-75
2024/01/12 06:16:26;;;;;;;105.15;98.40;;;2.00;99.90;;;;;;5075540;28;20076;-75
2024/01/12 06:18:52;;;;;;;162.20;152.23;;;2.00;99.90;;;;;;5078794;28;20079;-75
2024/01/12 06:21:17;;;;;;;125.30;117.27;;;2.00;99.90;;;;;;5083596;28;20058;-75
2024/01/12 06:23:43;;;;;;;93.30;87.40;;;2.10;99.90;;;;;;5078528;28;20047;-75
2024/01/12 06:26:09;;;;;;;97.80;91.73;;;2.10;99.90;;;;;;5077270;28;20405;-75
2024/01/12 06:28:34;;;;;;;154.57;145.63;;;2.20;99.90;;;;;;5081000;28;20136;-75
2024/01/12 06:31:00;;;;;;;97.83;91.50;;;2.20;99.90;;;;;;5075194;28;20056;-74
2024/01/12 06:33:26;;;;;;;113.43;106.07;;;2.20;99.90;;;;;;5062510;28;20553;-74
2024/01/12 06:35:51;;;;;;;170.33;159.40;;;2.20;99.90;;;;;;5056143;28;20044;-75
2024/01/12 06:38:17;;;;;;;143.73;134.37;;;2.20;99.90;;;;;;5082377;28;20634;-74
2024/01/12 06:40:43;;;;;;;104.23;96.97;;;2.20;99.90;;;;;;5081560;28;20075;-75
2024/01/12 06:43:08;;;;;;;114.43;107.50;;;2.30;99.90;;;;;;5065248;28;20044;-75
2024/01/12 06:45:34;;;;;;;120.03;111.90;;;2.30;99.90;;;;;;5061287;28;20124;-74
2024/01/12 06:48:00;;;;;;;123.03;114.53;;;2.30;99.90;;;;;;5076258;28;20124;-74
2024/01/12 06:50:28;;;;;;;117.47;109.63;;;2.30;99.90;;;;;;5079569;28;20051;-75
2024/01/12 06:52:55;;;;;;;135.00;126.28;;;2.30;99.90;;;;;;5081658;28;20048;-75
2024/01/12 06:55:21;;;;;;;151.25;142.20;;;2.30;99.90;;;;;;5075663;28;20106;-75
2024/01/12 06:57:47;;;;;;;84.67;78.87;;;2.30;99.90;;;;;;5058846;28;20036;-75
2024/01/12 07:00:15;;;;;;;130.07;122.10;;;2.40;99.90;;;;;;5055884;28;20052;-75
2024/01/12 07:02:40;;;;;;;89.68;83.88;;;2.40;99.90;;;;;;5056440;28;20402;-74
2024/01/12 07:05:07;;;;;;;102.60;96.43;;;2.40;99.90;;;;;;5072063;28;20040;-75
2024/01/12 07:07:33;;;;;;;113.72;107.20;;;2.50;99.90;;;;;;5065141;28;20044;-75
2024/01/12 07:09:59;;;;;;;175.53;165.10;;;2.50;99.90;;;;;;5067997;28;20040;-75
2024/01/12 07:12:24;;;;;;;166.43;156.13;;;2.50;99.90;;;;;;5082068;28;20139;-76
2024/01/12 07:14:50;;;;;;;112.87;105.47;;;2.50;99.90;;;;;;5064018;28;20063;-75
2024/01/12 07:17:16;;;;;;;269.60;252.90;;;2.50;99.90;;;;;;5060352;28;20422;-76
2024/01/12 07:19:45;;;;;;;139.20;130.97;;;2.50;99.90;;;;;;5078917;28;20406;-75
2024/01/12 07:22:11;;;;;;;153.68;143.57;;;2.60;99.90;;;;;;5074104;28;20028;-76
2024/01/12 07:24:37;;;;;;;150.27;141.20;;;2.60;99.90;;;;;;5077181;28;20036;-75
2024/01/12 07:27:03;;;;;;;167.60;157.07;;;2.60;99.90;;;;;;5071640;28;20414;-76
2024/01/12 07:29:29;;;;;;;93.67;87.10;;;2.70;99.90;;;;;;5058081;28;20032;-75
2024/01/12 07:31:56;;;;;;;150.48;140.82;;;2.70;99.90;;;;;;5064982;28;20040;-75
2024/01/12 07:34:22;;;;;;;107.65;101.18;;;2.70;99.90;;;;;;5074376;28;20071;-76
2024/01/12 07:36:48;;;;;;;102.43;95.93;;;2.80;99.90;;;;;;5080673;28;20554;-75
2024/01/12 07:39:13;;;;;;;112.00;105.13;;;2.80;99.90;;;;;;5079546;28;20044;-75
2024/01/12 07:41:39;;;;;;;104.00;97.33;;;2.70;99.90;;;;;;5074729;28;20451;-75
2024/01/12 07:44:07;;;;;;;106.03;99.53;;;2.70;99.90;;;;;;5050158;28;20032;-74
2024/01/12 07:46:33;;;;;;;110.50;104.15;;;2.70;99.90;;;;;;5080451;28;20124;-75
2024/01/12 07:48:59;;;;;;;126.10;118.47;;;2.70;99.90;;;;;;5081753;28;20448;-75
2024/01/12 07:51:25;;;;;;;101.32;94.75;;;2.60;99.90;;;;;;5084753;28;20282;-75
2024/01/12 07:53:51;;;;;;;142.57;134.00;;;2.60;99.90;;;;;;5078694;28;20105;-76
2024/01/12 07:56:17;;;;;;;112.85;105.45;;;2.60;99.90;;;;;;5069720;28;20036;-75
2024/01/12 07:58:42;;;;;;;100.60;94.40;;;2.60;99.90;;;;;;5083071;28;20043;-75
2024/01/12 08:01:13;;;;;;;108.57;101.40;;;2.60;99.90;;;;;;5078714;28;20094;-75
2024/01/12 08:03:39;;;;;;;125.43;117.43;;;2.60;99.90;;;;;;5060317;28;20035;-75
2024/01/12 08:06:05;;;;;;;103.28;96.85;;;2.60;99.90;;;;;;5061671;28;20048;-75
2024/01/12 08:08:31;;;;;;;118.30;110.97;;;2.50;99.90;;;;;;5080931;28;20612;-75
2024/01/12 08:10:57;;;;;;;105.80;99.23;;;2.50;99.90;;;;;;5060484;28;20033;-76
2024/01/12 08:13:24;;;;;;;132.23;124.32;;;2.50;99.90;;;;;;5089270;28;20088;-76
2024/01/12 08:15:50;;;;;;;110.40;103.20;;;2.50;99.90;;;;;;5078720;28;20098;-75
2024/01/12 08:18:16;;;;;;;115.30;107.88;;;2.60;99.90;;;;;;5061656;28;20032;-76
2024/01/12 08:20:42;;;;;;;123.32;115.60;;;2.50;99.90;;;;;;5082150;28;20036;-75
2024/01/12 08:23:07;;;;;;;101.87;95.77;;;2.60;99.90;;;;;;5067842;28;20036;-76
2024/01/12 08:25:33;;;;;;;148.83;139.93;;;2.60;99.90;;;;;;5078597;28;20040;-75
2024/01/12 08:27:59;;;;;;;152.13;142.60;;;2.60;99.90;;;;;;5075684;28;20036;-76
2024/01/12 08:30:24;;;;;;;104.43;97.70;;;2.60;99.90;;;;;;5085045;28;20538;-76
2024/01/12 08:32:52;;;;;;;146.83;137.90;;;2.70;99.90;;;;;;5064823;28;20379;-76
2024/01/12 08:35:18;;;;;;;113.32;106.35;;;2.70;99.90;;;;;;5064071;28;20036;-76
2024/01/12 08:37:43;;;;;;;156.20;146.17;;;2.70;99.90;;;;;;5081315;28;20040;-75
2024/01/12 08:40:10;;;;;;;123.93;116.23;;;2.70;99.90;;;;;;5089027;28;20085;-76
2024/01/12 08:42:37;;;;;;;118.13;111.38;;;2.70;99.90;;;;;;5084889;28;20036;-75
2024/01/12 08:45:04;;;;;;;127.45;119.35;;;2.80;99.90;;;;;;5086229;28;20044;-76
2024/01/12 08:47:29;;;;;;;109.80;102.82;;;2.80;99.90;;;;;;5081930;28;20074;-76
2024/01/12 08:49:55;;;;;;;131.17;122.73;;;2.80;99.90;;;;;;5085513;28;20787;-75
2024/01/12 08:52:21;;;;;;;158.73;148.90;;;2.80;99.90;;;;;;5066024;28;20047;-75
2024/01/12 08:54:46;;;;;;;163.47;152.77;;;2.90;99.90;;;;;;5063868;28;20494;-75
2024/01/12 08:57:12;;;;;;;180.40;169.47;;;2.90;99.90;;;;;;5053748;28;20533;-75
2024/01/12 08:59:38;;;;;;;148.63;139.13;;;3.00;99.90;;;;;;5074289;28;20519;-75
2024/01/12 09:02:03;;;;;;;150.80;141.73;;;3.00;99.90;;;;;;5076489;28;20379;-75
2024/01/12 09:04:31;;;;;;;152.17;142.53;;;3.10;99.90;;;;;;5081625;28;20036;-75
2024/01/12 09:06:57;;;;;;;158.77;149.13;;;3.10;99.90;;;;;;5082743;28;20044;-75
2024/01/12 09:09:23;;;;;;;177.63;167.23;;;3.10;99.90;;;;;;5083056;28;20040;-75
2024/01/12 09:11:49;;;;;;;148.02;139.27;;;3.10;99.90;;;;;;5086325;28;20476;-75
2024/01/12 09:14:15;;;;;;;247.23;230.60;;;3.10;99.90;;;;;;5089065;28;20131;-76
2024/01/12 09:16:40;;;;;;;140.03;131.70;;;3.10;99.90;;;;;;5086689;28;20075;-75
2024/01/12 09:19:08;;;;;;;237.80;222.17;;;3.20;99.90;;;;;;5072166;28;20034;-76
2024/01/12 09:21:33;;;;;;;172.05;161.65;;;3.20;99.90;;;;;;5090484;28;20048;-75
2024/01/12 09:23:59;;;;;;;197.17;185.13;;;3.20;99.90;;;;;;5063344;28;20038;-75
2024/01/12 09:26:25;;;;;;;156.90;147.07;;;3.20;99.90;;;;;;5061736;28;20094;-75
2024/01/12 09:28:50;;;;;;;162.60;152.33;;;3.20;99.90;;;;;;5082004;28;20093;-75
2024/01/12 09:31:16;;;;;;;190.30;178.27;;;3.20;99.90;;;;;;5074124;28;20478;-76
2024/01/12 09:33:42;;;;;;;232.50;217.60;;;3.20;99.90;;;;;;5065746;28;20039;-75
2024/01/12 09:36:08;;;;;;;192.20;179.83;;;3.20;99.90;;;;;;5089078;28;20051;-75
2024/01/12 09:38:34;;;;;;;155.20;145.65;;;3.30;99.90;;;;;;5073186;28;20414;-75
2024/01/12 09:41:02;;;;;;;154.97;145.27;;;3.30;99.90;;;;;;5075579;28;20036;-75
2024/01/12 09:43:29;;;;;;;155.75;146.30;;;3.30;99.90;;;;;;5072156;28;20062;-75
2024/01/12 09:46:00;;;;;;;160.10;150.65;;;3.30;99.90;;;;;;5078895;28;20136;-75
2024/01/12 09:48:27;;;;;;;152.38;143.57;;;3.30;99.90;;;;;;5058232;28;20060;-75
2024/01/12 09:50:55;;;;;;;194.65;182.95;;;3.40;99.90;;;;;;5067205;28;20123;-75
2024/01/12 09:53:21;;;;;;;183.18;171.93;;;3.40;99.90;;;;;;5065997;28;20131;-75
2024/01/12 09:55:48;;;;;;;225.53;211.50;;;3.40;99.90;;;;;;5084624;28;20103;-75
2024/01/12 09:58:15;;;;;;;278.35;259.95;;;3.40;99.90;;;;;;5085847;28;20051;-75
2024/01/12 10:00:43;;;;;;;190.10;178.07;;;3.40;99.90;;;;;;5064024;28;20086;-76
2024/01/12 10:03:10;;;;;;;162.02;152.10;;;3.50;99.90;;;;;;5082539;28;20036;-76
2024/01/12 10:05:37;;;;;;;225.93;211.93;;;3.50;99.90;;;;;;5085005;28;20031;-75
2024/01/12 10:08:04;;;;;;;237.95;222.57;;;3.60;99.90;;;;;;5067469;28;20448;-75
2024/01/12 10:10:30;;;;;;;286.42;266.75;;;3.60;99.90;;;;;;5079830;28;21442;-75
2024/01/12 10:12:55;;;;;;;225.20;210.80;;;3.60;99.90;;;;;;5085694;28;20511;-75
2024/01/12 10:15:21;;;;;;;220.50;206.23;;;3.70;99.90;;;;;;5071881;28;20378;-75
2024/01/12 10:17:51;;;;;;;171.40;160.33;;;3.70;99.90;;;;;;5071735;28;20083;-75
2024/01/12 10:20:17;;;;;;;224.65;210.70;;;3.70;99.90;;;;;;5059594;28;20056;-75
2024/01/12 10:22:43;;;;;;;274.33;256.47;;;3.70;99.90;;;;;;5056570;28;20033;-75
2024/01/12 10:25:08;;;;;;;209.53;196.60;;;3.70;99.90;;;;;;5073242;28;20047;-76
2024/01/12 10:27:34;;;;;;;158.40;148.67;;;3.70;99.90;;;;;;5078414;28;20039;-75
2024/01/12 10:30:00;;;;;;;171.23;160.70;;;3.70;99.90;;;;;;5064416;28;20286;-74
2024/01/12 10:32:26;;;;;;;252.57;236.33;;;3.70;99.90;;;;;;5081166;28;20455;-75
2024/01/12 10:34:53;;;;;;;206.02;193.02;;;3.70;99.90;;;;;;5061816;28;20044;-75
2024/01/12 10:37:20;;;;;;;214.32;201.15;;;3.70;99.90;;;;;;5074375;28;20037;-75
2024/01/12 10:39:47;;;;;;;158.18;148.45;;;3.70;99.90;;;;;;5064131;28;20032;-75
2024/01/12 10:42:14;;;;;;;158.25;148.60;;;3.70;99.90;;;;;;5074760;28;20040;-75
2024/01/12 10:44:42;;;;;;;188.13;177.05;;;3.70;99.90;;;;;;5056425;28;20087;-76
2024/01/12 10:47:19;;;;;;;212.00;199.45;;;3.70;99.90;;;;;;5064216;28;20130;-76
2024/01/12 10:49:57;;;;;;;205.02;191.63;;;3.70;99.90;;;;;;5067884;28;20039;-76
2024/01/12 10:52:50;;;;;;;188.85;177.90;;;3.70;99.90;;;;;;5073480;28;20119;-76
2024/01/12 10:55:21;;;;;;;204.15;192.13;;;3.80;99.90;;;;;;5078577;28;20486;-75
2024/01/12 10:57:47;;;;;;;263.17;246.50;;;3.80;99.90;;;;;;5077815;28;20509;-75
2024/01/12 11:00:14;;;;;;;275.55;258.70;;;3.80;99.90;;;;;;5074796;28;20033;-76
2024/01/12 11:02:41;;;;;;;203.20;191.00;;;3.90;99.90;;;;;;5074636;28;20070;-76
2024/01/12 11:05:08;;;;;;;281.65;264.00;;;3.90;99.90;;;;;;5079149;28;20040;-76
2024/01/12 11:07:35;;;;;;;283.25;265.02;;;4.00;99.90;;;;;;5064254;28;20486;-76
2024/01/12 11:10:01;;;;;;;281.70;263.58;;;4.00;99.90;;;;;;5082377;28;20051;-76
2024/01/12 11:12:32;;;;;;;220.20;207.07;;;4.00;99.90;;;;;;5081823;28;20053;-76
2024/01/12 11:14:58;;;;;;;197.85;186.38;;;4.00;99.90;;;;;;5076933;28;20044;-76
2024/01/12 11:17:33;;;;;;;221.63;208.10;;;4.10;99.90;;;;;;5057994;28;20037;-76
2024/01/12 11:20:06;;;;;;;429.08;397.83;;;4.10;99.90;;;;;;5069617;28;20085;-75
2024/01/12 11:22:32;;;;;;;196.77;184.40;;;4.10;99.90;;;;;;5056843;28;20047;-75
2024/01/12 11:24:58;;;;;;;205.68;192.32;;;4.10;99.90;;;;;;5058172;28;20043;-75
2024/01/12 11:27:34;;;;;;;306.35;286.88;;;4.20;99.90;;;;;;5078906;28;20040;-75
2024/01/12 11:30:01;;;;;;;299.35;279.42;;;4.20;99.90;;;;;;5074356;28;20557;-76
2024/01/12 11:32:31;;;;;;;290.30;271.70;;;4.30;99.90;;;;;;5078540;28;20123;-75
2024/01/12 11:35:13;;;;;;;355.83;329.45;;;4.30;99.90;;;;;;5069208;28;20032;-75
2024/01/12 11:37:59;;;;;;;314.05;293.48;;;4.30;99.90;;;;;;5071001;28;20044;-76
2024/01/12 11:40:25;;;;;;;364.50;338.58;;;4.30;99.90;;;;;;5061056;28;20044;-76
2024/01/12 11:42:52;;;;;;;311.20;290.67;;;4.30;99.90;;;;;;5074586;28;20085;-76
2024/01/12 11:45:18;;;;;;;310.25;289.60;;;4.30;99.90;;;;;;5067351;28;20274;-75
2024/01/12 11:47:44;;;;;;;215.63;203.02;;;4.30;99.90;;;;;;5064170;28;20044;-75
2024/01/12 11:50:12;;;;;;;232.85;218.30;;;4.30;99.90;;;;;;5058218;28;20101;-75
2024/01/12 11:52:38;;;;;;;238.57;224.07;;;4.30;99.90;;;;;;5074078;28;20037;-75
2024/01/12 11:55:09;;;;;;;282.63;263.90;;;4.30;99.90;;;;;;5058317;28;20513;-76
2024/01/12 11:57:36;;;;;;;256.65;239.30;;;4.30;99.90;;;;;;5065249;28;20036;-75
2024/01/12 12:00:04;;;;;;;264.77;246.63;;;4.30;99.90;;;;;;5070403;28;20048;-75
2024/01/12 12:02:29;;;;;;;271.58;254.32;;;4.30;99.90;;;;;;5074170;28;20487;-75
2024/01/12 12:04:56;;;;;;;265.67;247.93;;;4.30;99.90;;;;;;5080734;28;20117;-75
2024/01/12 12:07:26;;;;;;;284.92;266.45;;;4.30;99.90;;;;;;5078125;28;20036;-76
2024/01/12 12:09:53;;;;;;;254.23;237.80;;;4.30;99.90;;;;;;5091376;28;20047;-76
2024/01/12 12:12:22;;;;;;;274.17;256.15;;;4.30;99.90;;;;;;5075017;28;20059;-75
2024/01/12 12:15:05;;;;;;;244.57;229.27;;;4.30;99.90;;;;;;5093271;28;20036;-76
2024/01/12 12:17:33;;;;;;;238.75;224.00;;;4.30;99.90;;;;;;5086929;28;20043;-75
2024/01/12 12:19:59;;;;;;;240.43;225.65;;;4.30;99.90;;;;;;5086591;28;20036;-76
2024/01/12 12:22:25;;;;;;;231.73;218.10;;;4.40;99.90;;;;;;5071504;28;20067;-76